Gillette, Wyoming
Current Conditions -  °F | °C
As of 12:53 PM on Friday 24 Oct 2014 (Local Time) from KGCC Reporting Station
NA  
Wind Chill: 66°   Ceiling: NA
Heat Index: 66°   Visibility: NA
Dew Point: 31°   Wind: 10mph
Humidity: 27%   Direction: 50°NE
Pressure: 30.06"   Gusts: NA
Location:  44.29°N, 105.5°W
Report Text: KGCC 241853Z AUTO 05009KT 19/M01 A3006 RMK AO2 SLP154 T01891006
Loading
Personal Weather Stations






























Interactive Weather Map New forecast layout! Learn more

10-Day Weather Forecast

Advertisements
Track Severe Weather on mobile